Time;durP1;ratioP1;P1;durP2;ratioP2;P2;SDS_P1;SDS_P2;PMS_P1;PMS_P2;Temp;Humidity;BMP_temperature;BMP_pressure;BME280_temperature;BME280_humidity;BME280_pressure;Samples;Min_cycle;Max_cycle;Signal;HPM_P1;HPM_P2
2023/10/11 00:02:14;;;;;;;149.85;141.45;;;18.50;99.90;;;;;;4956973;28;20400;-72
2023/10/11 00:04:41;;;;;;;114.90;108.72;;;18.50;99.90;;;;;;4958114;28;20030;-72
2023/10/11 00:07:07;;;;;;;121.13;114.63;;;18.40;99.90;;;;;;4957801;28;20038;-72
2023/10/11 00:09:38;;;;;;;116.75;110.15;;;18.40;99.90;;;;;;4955276;29;20448;-72
2023/10/11 00:12:04;;;;;;;145.18;137.27;;;18.40;99.90;;;;;;4954394;28;20489;-72
2023/10/11 00:14:31;;;;;;;155.00;146.48;;;18.40;99.90;;;;;;4954071;28;20047;-71
2023/10/11 00:16:57;;;;;;;152.82;144.35;;;18.40;99.90;;;;;;4968865;28;20388;-71
2023/10/11 00:19:28;;;;;;;138.63;130.57;;;18.40;99.90;;;;;;4974196;28;20041;-71
2023/10/11 00:21:55;;;;;;;134.25;127.07;;;18.30;99.90;;;;;;4959992;28;20047;-71
2023/10/11 00:24:23;;;;;;;138.25;130.57;;;18.30;99.90;;;;;;4955293;28;20027;-71
2023/10/11 00:26:50;;;;;;;141.60;133.60;;;18.20;99.90;;;;;;4954682;28;20047;-71
2023/10/11 00:29:16;;;;;;;132.77;125.78;;;18.20;99.90;;;;;;4955041;28;20074;-71
2023/10/11 00:31:45;;;;;;;123.90;116.85;;;18.20;99.90;;;;;;4955950;28;20036;-71
2023/10/11 00:34:12;;;;;;;111.50;105.00;;;18.10;99.90;;;;;;4974286;28;20054;-71
2023/10/11 00:36:39;;;;;;;111.72;105.32;;;18.10;99.90;;;;;;4973455;28;20043;-71
2023/10/11 00:39:07;;;;;;;107.80;101.78;;;18.10;99.90;;;;;;4974375;28;20491;-71
2023/10/11 00:41:39;;;;;;;108.53;102.53;;;18.00;99.90;;;;;;4972781;28;20054;-71
2023/10/11 00:44:08;;;;;;;108.03;101.57;;;18.00;99.90;;;;;;4973744;28;20404;-72
2023/10/11 00:49:20;;;;;;;114.32;107.88;;;17.90;99.90;;;;;;4975525;28;20046;-71
2023/10/11 00:51:46;;;;;;;113.70;107.38;;;17.90;99.90;;;;;;4959393;28;20065;-71
2023/10/11 00:54:15;;;;;;;117.28;110.45;;;17.80;99.90;;;;;;4953472;29;20512;-71
2023/10/11 00:56:48;;;;;;;118.85;112.18;;;17.90;99.90;;;;;;4970767;28;20043;-71
2023/10/11 00:59:15;;;;;;;104.18;98.55;;;17.90;99.90;;;;;;4972729;28;20047;-71
2023/10/11 01:01:44;;;;;;;106.43;100.55;;;17.80;99.90;;;;;;4973109;28;20031;-71
2023/10/11 01:04:10;;;;;;;106.25;100.25;;;17.80;99.90;;;;;;4973761;28;20031;-71
2023/10/11 01:06:37;;;;;;;108.07;102.03;;;17.80;99.90;;;;;;4972634;28;20046;-71
2023/10/11 01:09:28;;;;;;;103.32;96.93;;;17.80;99.90;;;;;;4972050;28;20046;-71
2023/10/11 01:11:49;;;;;;;106.95;101.10;;;17.80;99.90;;;;;;4973314;28;20455;-71
2023/10/11 01:14:15;;;;;;;101.03;94.95;;;17.70;99.90;;;;;;4955125;28;20030;-71
2023/10/11 01:16:41;;;;;;;116.80;110.25;;;17.70;99.90;;;;;;4965731;28;20057;-71
2023/10/11 01:19:11;;;;;;;120.30;113.47;;;17.70;99.90;;;;;;4973046;28;20035;-70
2023/10/11 01:21:41;;;;;;;93.40;87.85;;;17.80;99.90;;;;;;4963807;28;20487;-71
2023/10/11 01:24:11;;;;;;;83.35;78.68;;;17.80;99.90;;;;;;4973158;28;20037;-71
2023/10/11 01:26:37;;;;;;;88.10;83.00;;;17.70;99.90;;;;;;4973166;28;20031;-71
2023/10/11 01:29:05;;;;;;;96.55;91.15;;;17.70;99.90;;;;;;4972505;28;20673;-71
2023/10/11 01:31:33;;;;;;;94.43;88.85;;;17.70;99.90;;;;;;4969381;28;20043;-71
2023/10/11 01:33:59;;;;;;;102.55;96.85;;;17.60;99.90;;;;;;4972144;28;20476;-71
2023/10/11 01:36:26;;;;;;;115.85;109.30;;;17.50;99.90;;;;;;4973676;28;20034;-72
2023/10/11 01:38:52;;;;;;;101.47;95.32;;;17.50;99.90;;;;;;4972563;28;20432;-72
2023/10/11 01:41:27;;;;;;;92.43;86.82;;;17.40;99.90;;;;;;4962967;28;20023;-72
2023/10/11 01:43:54;;;;;;;99.55;93.45;;;17.40;99.90;;;;;;4952204;29;20050;-72
2023/10/11 01:46:25;;;;;;;101.07;95.07;;;17.40;99.90;;;;;;4961252;28;20369;-72
2023/10/11 01:48:52;;;;;;;104.43;98.32;;;17.30;99.90;;;;;;4972207;28;20413;-72
2023/10/11 01:51:26;;;;;;;97.53;92.00;;;17.20;99.90;;;;;;4967696;28;20039;-72
2023/10/11 01:54:06;;;;;;;90.97;85.45;;;17.30;99.90;;;;;;4967430;28;20031;-72
2023/10/11 01:56:32;;;;;;;92.68;87.47;;;17.20;99.90;;;;;;4967688;28;20384;-72
2023/10/11 01:59:00;;;;;;;96.70;90.68;;;17.20;99.90;;;;;;4953968;29;20065;-72
2023/10/11 02:01:30;;;;;;;99.05;93.22;;;17.20;99.90;;;;;;4960924;28;20035;-72
2023/10/11 02:04:03;;;;;;;93.75;88.18;;;17.20;99.90;;;;;;4956295;28;20033;-72
2023/10/11 02:06:31;;;;;;;94.65;89.30;;;17.20;99.90;;;;;;4960905;28;20027;-72
2023/10/11 02:08:58;;;;;;;103.80;97.60;;;17.10;99.90;;;;;;4953788;29;20034;-72
2023/10/11 02:11:25;;;;;;;96.43;90.57;;;17.00;99.90;;;;;;4956421;28;20040;-72
2023/10/11 02:13:52;;;;;;;97.63;92.18;;;17.00;99.90;;;;;;4953567;28;20047;-72
2023/10/11 02:16:19;;;;;;;95.38;89.57;;;17.00;99.90;;;;;;4952871;28;20408;-72
2023/10/11 02:18:51;;;;;;;95.65;89.82;;;16.90;99.90;;;;;;4952696;28;20511;-72
2023/10/11 02:21:19;;;;;;;97.95;91.15;;;16.90;99.90;;;;;;4962416;28;20054;-72
2023/10/11 02:23:46;;;;;;;92.82;87.53;;;16.90;99.90;;;;;;4971849;28;20399;-72
2023/10/11 02:26:16;;;;;;;90.57;84.97;;;16.80;99.90;;;;;;4962714;28;20070;-72
2023/10/11 02:28:43;;;;;;;93.32;87.53;;;16.80;99.90;;;;;;4970188;28;20034;-72
2023/10/11 02:31:20;;;;;;;91.70;86.38;;;16.80;99.90;;;;;;4965088;28;20050;-72
2023/10/11 02:33:47;;;;;;;88.57;83.22;;;16.70;99.90;;;;;;4974456;28;20387;-73
2023/10/11 02:36:19;;;;;;;89.97;84.55;;;16.70;99.90;;;;;;4970973;28;20027;-72
2023/10/11 02:38:50;;;;;;;95.95;90.63;;;16.70;99.90;;;;;;4957082;29;20032;-72
2023/10/11 02:41:26;;;;;;;92.60;87.32;;;16.70;99.90;;;;;;4961199;28;20016;-72
2023/10/11 02:43:53;;;;;;;85.85;80.63;;;16.60;99.90;;;;;;4956751;29;20049;-72
2023/10/11 02:46:23;;;;;;;86.65;81.63;;;16.60;99.90;;;;;;4954801;28;20054;-72
2023/10/11 02:49:05;;;;;;;88.70;83.57;;;16.60;99.90;;;;;;4971512;28;20677;-72
2023/10/11 02:51:33;;;;;;;88.28;83.10;;;16.50;99.90;;;;;;4962192;28;20050;-72
2023/10/11 02:54:04;;;;;;;89.15;84.07;;;16.50;99.90;;;;;;4956514;29;20031;-72
2023/10/11 02:56:46;;;;;;;82.15;77.53;;;16.50;99.90;;;;;;4970066;28;20035;-72
2023/10/11 02:59:25;;;;;;;83.63;78.85;;;16.40;99.90;;;;;;4974992;28;20459;-72
2023/10/11 03:02:01;;;;;;;78.38;73.85;;;16.50;99.90;;;;;;4974768;28;20038;-72
2023/10/11 03:04:28;;;;;;;81.63;77.05;;;16.50;99.90;;;;;;4959394;28;20035;-72
2023/10/11 03:06:54;;;;;;;81.35;76.57;;;16.50;99.90;;;;;;4970213;28;20038;-72
2023/10/11 03:09:26;;;;;;;88.18;82.95;;;16.50;99.90;;;;;;4975674;28;20031;-72
2023/10/11 03:11:55;;;;;;;89.68;84.25;;;16.40;99.90;;;;;;4959147;28;20042;-72
2023/10/11 03:14:24;;;;;;;89.50;83.95;;;16.40;99.90;;;;;;4972088;28;20057;-72
2023/10/11 03:16:56;;;;;;;89.85;84.95;;;16.30;99.90;;;;;;4974387;28;20059;-71
2023/10/11 03:19:24;;;;;;;96.35;89.78;;;16.30;99.90;;;;;;4974805;28;20043;-71
2023/10/11 03:21:56;;;;;;;83.53;78.68;;;16.30;99.90;;;;;;4961444;28;20059;-71
2023/10/11 03:24:25;;;;;;;86.63;81.75;;;16.30;99.90;;;;;;4956244;29;20027;-71
2023/10/11 03:26:52;;;;;;;82.80;77.97;;;16.30;99.90;;;;;;4955849;28;20047;-71
2023/10/11 03:29:18;;;;;;;84.03;78.93;;;16.40;99.90;;;;;;4956689;28;20063;-71
2023/10/11 03:31:44;;;;;;;90.03;84.97;;;16.40;99.90;;;;;;4957589;28;20381;-71
2023/10/11 03:34:14;;;;;;;74.65;70.32;;;16.40;99.90;;;;;;4974179;28;20039;-71
2023/10/11 03:36:51;;;;;;;76.97;72.30;;;16.40;99.90;;;;;;4968312;28;20051;-71
2023/10/11 03:39:31;;;;;;;80.45;75.75;;;16.40;99.90;;;;;;4975188;28;20042;-71
2023/10/11 03:42:07;;;;;;;85.28;80.18;;;16.40;99.90;;;;;;4959896;28;20043;-71
2023/10/11 03:44:39;;;;;;;91.80;86.35;;;16.40;99.90;;;;;;4955717;28;20070;-71
2023/10/11 03:47:08;;;;;;;86.82;81.70;;;16.50;99.90;;;;;;4955252;28;20035;-71
2023/10/11 03:52:30;;;;;;;100.22;93.90;;;16.60;99.90;;;;;;4974432;28;20039;-72
2023/10/11 03:55:04;;;;;;;94.45;87.43;;;16.70;99.90;;;;;;4956681;28;20046;-71
2023/10/11 03:57:41;;;;;;;92.72;84.93;;;16.70;99.90;;;;;;4955676;28;20715;-71
2023/10/11 04:00:25;;;;;;;91.82;82.97;;;16.70;99.90;;;;;;4955067;28;20044;-71
2023/10/11 04:02:57;;;;;;;88.28;82.13;;;16.70;99.90;;;;;;4955326;28;20055;-71
2023/10/11 04:05:33;;;;;;;101.57;94.35;;;16.70;99.90;;;;;;4957045;28;20035;-71
2023/10/11 04:08:05;;;;;;;109.00;100.55;;;16.80;99.90;;;;;;4969323;28;20039;-71
2023/10/11 04:10:46;;;;;;;112.10;104.90;;;16.80;99.90;;;;;;4964871;28;20039;-71
2023/10/11 04:13:15;;;;;;;;;;;16.70;99.90;;;;;;4975080;28;20050;-71
2023/10/11 04:15:41;;;;;;;78.35;71.55;;;16.80;99.90;;;;;;4969570;28;19923;-71
2023/10/11 04:18:20;;;;;;;107.40;96.82;;;16.70;99.90;;;;;;4955018;28;20031;-71
2023/10/11 04:21:03;;;;;;;106.82;98.82;;;16.80;99.90;;;;;;4959065;28;20400;-72
2023/10/11 04:23:35;;;;;;;110.05;101.10;;;16.60;99.90;;;;;;4974294;28;20047;-71
2023/10/11 04:26:08;;;;;;;133.65;123.85;;;16.70;99.90;;;;;;4974217;28;20484;-71
2023/10/11 04:28:41;;;;;;;126.40;117.82;;;16.70;99.90;;;;;;4974089;28;20038;-71
2023/10/11 04:33:54;;;;;;;134.95;125.68;;;16.70;99.90;;;;;;4955537;28;20540;-71
2023/10/11 04:36:20;;;;;;;139.55;129.55;;;16.60;99.90;;;;;;4964539;28;20488;-72
2023/10/11 04:38:50;;;;;;;144.57;132.38;;;16.70;99.90;;;;;;4962433;28;20043;-72
2023/10/11 04:41:18;;;;;;;132.98;124.07;;;16.70;99.90;;;;;;4963350;28;20039;-72
2023/10/11 04:43:51;;;;;;;144.57;133.00;;;16.70;99.90;;;;;;4961636;28;20037;-72
2023/10/11 04:46:18;;;;;;;146.07;135.07;;;16.80;99.90;;;;;;4969648;28;20043;-72
2023/10/11 04:48:45;;;;;;;156.05;145.57;;;16.80;99.90;;;;;;4965092;28;20480;-72
2023/10/11 04:53:54;;;;;;;167.90;157.98;;;16.80;99.90;;;;;;4973814;28;20043;-72
2023/10/11 04:59:08;;;;;;;156.75;147.15;;;16.90;99.90;;;;;;4968782;28;20507;-72
2023/10/11 05:02:11;;;;;;;175.35;163.73;;;16.90;99.90;;;;;;4971335;28;20050;-72
2023/10/11 05:04:28;;;;;;;152.20;142.77;;;16.80;99.90;;;;;;4972805;28;20041;-71
2023/10/11 05:06:55;;;;;;;163.75;152.07;;;16.80;99.90;;;;;;4972071;28;20023;-72
2023/10/11 05:09:29;;;;;;;152.02;142.27;;;16.80;99.90;;;;;;4958598;28;20036;-72
2023/10/11 05:12:19;;;;;;;144.30;134.27;;;16.70;99.90;;;;;;4960333;28;20041;-72
2023/10/11 05:17:38;;;;;;;141.52;132.52;;;16.70;99.90;;;;;;4954154;28;20511;-72
2023/10/11 05:22:42;;;;;;;124.65;117.38;;;16.70;99.90;;;;;;4979003;28;20034;-72
2023/10/11 05:25:15;;;;;;;128.77;118.90;;;16.70;99.90;;;;;;4972289;28;20026;-72
2023/10/11 05:27:49;;;;;;;124.80;117.82;;;16.70;99.90;;;;;;4957107;28;20031;-72
2023/10/11 05:52:16;;;;;;;108.22;101.70;;;16.50;99.90;;;;;;4971837;28;20047;-71
2023/10/11 05:54:43;;;;;;;107.38;101.13;;;16.50;99.90;;;;;;4971695;28;20031;-71
2023/10/11 05:57:09;;;;;;;105.25;98.03;;;16.60;99.90;;;;;;4969066;28;20054;-71
2023/10/11 05:59:38;;;;;;;98.15;91.57;;;16.50;99.90;;;;;;4969333;28;20054;-71
2023/10/11 06:02:13;;;;;;;106.38;99.07;;;16.60;99.90;;;;;;4969980;28;20035;-71
2023/10/11 06:04:39;;;;;;;103.97;97.85;;;16.60;99.90;;;;;;4992485;28;20042;-71
2023/10/11 06:07:07;;;;;;;113.22;105.38;;;16.60;99.90;;;;;;4971039;28;20041;-71
2023/10/11 06:09:39;;;;;;;108.95;102.68;;;16.70;99.90;;;;;;4972248;28;20053;-71
2023/10/11 06:12:10;;;;;;;112.45;105.13;;;16.70;99.90;;;;;;4971883;28;20047;-71
2023/10/11 06:14:36;;;;;;;115.15;108.22;;;16.70;99.90;;;;;;4960806;28;20043;-71
2023/10/11 06:17:05;;;;;;;115.20;108.07;;;16.70;99.90;;;;;;4972358;28;20412;-71
2023/10/11 06:19:32;;;;;;;114.72;107.38;;;16.70;99.90;;;;;;4971976;28;20052;-71
2023/10/11 06:22:09;;;;;;;120.57;113.45;;;16.70;99.90;;;;;;4965800;28;20370;-71
2023/10/11 06:24:38;;;;;;;114.78;107.60;;;16.70;99.90;;;;;;4958864;28;20047;-71
2023/10/11 06:29:41;;;;;;;112.10;105.65;;;16.60;99.90;;;;;;4965274;28;20046;-71
2023/10/11 06:32:18;;;;;;;110.38;104.43;;;16.70;99.90;;;;;;4965936;28;20039;-71
2023/10/11 06:34:47;;;;;;;113.10;106.68;;;16.70;99.90;;;;;;4965587;28;20054;-71
2023/10/11 06:37:17;;;;;;;110.53;104.38;;;16.70;99.90;;;;;;4961982;28;20035;-71
2023/10/11 06:42:23;;;;;;;114.07;107.35;;;16.60;99.90;;;;;;4965594;28;20026;-71
2023/10/11 06:44:57;;;;;;;116.28;109.93;;;16.70;99.90;;;;;;4973451;28;20534;-71
2023/10/11 06:47:25;;;;;;;111.03;104.50;;;16.70;99.90;;;;;;4971272;28;20054;-71
2023/10/11 06:49:55;;;;;;;110.63;104.55;;;16.70;99.90;;;;;;4960048;28;20047;-70
2023/10/11 06:52:25;;;;;;;113.22;106.90;;;16.70;99.90;;;;;;4949778;28;20054;-70
2023/10/11 06:55:13;;;;;;;116.75;110.47;;;16.70;99.90;;;;;;4969687;28;20039;-71
2023/10/11 06:57:40;;;;;;;119.55;112.43;;;16.70;99.90;;;;;;4959160;28;20027;-71
2023/10/11 07:00:29;;;;;;;124.90;117.75;;;16.70;99.90;;;;;;4973174;28;20027;-71
2023/10/11 07:03:06;;;;;;;116.50;110.28;;;16.70;99.90;;;;;;4978273;28;20026;-71
2023/10/11 07:05:46;;;;;;;122.57;115.32;;;16.70;99.90;;;;;;4972385;28;20034;-71
2023/10/11 07:08:17;;;;;;;134.13;124.78;;;16.70;99.90;;;;;;4957120;28;20034;-71
2023/10/11 07:11:00;;;;;;;120.18;113.07;;;16.70;99.90;;;;;;4972701;28;20038;-71
2023/10/11 07:13:30;;;;;;;114.15;106.97;;;16.70;99.90;;;;;;4973445;28;20051;-71
2023/10/11 07:16:07;;;;;;;120.68;114.28;;;16.50;99.90;;;;;;4972420;28;20042;-71
2023/10/11 07:18:39;;;;;;;128.38;120.88;;;16.50;99.90;;;;;;4974015;28;20043;-71
2023/10/11 07:21:07;;;;;;;124.35;116.75;;;16.60;99.90;;;;;;4972708;28;20023;-72
2023/10/11 07:26:48;;;;;;;101.57;95.40;;;16.70;99.90;;;;;;4978861;28;20038;-72
2023/10/11 07:29:12;;;;;;;108.47;102.00;;;16.80;99.90;;;;;;4972840;28;20058;-71
2023/10/11 07:31:48;;;;;;;116.22;110.10;;;16.70;99.90;;;;;;4966373;28;20058;-71
2023/10/11 07:34:17;;;;;;;130.30;123.13;;;16.70;99.90;;;;;;4967417;28;20042;-71
2023/10/11 07:36:43;;;;;;;114.53;108.65;;;16.80;99.90;;;;;;4963751;28;20030;-72
2023/10/11 07:39:20;;;;;;;121.65;115.45;;;16.80;99.90;;;;;;4970846;28;20035;-71
2023/10/11 07:41:51;;;;;;;118.60;112.30;;;16.80;99.90;;;;;;4962229;28;20519;-72
2023/10/11 07:44:18;;;;;;;123.30;116.82;;;16.80;99.90;;;;;;4953139;28;20027;-73
2023/10/11 07:46:48;;;;;;;126.85;120.00;;;16.80;99.90;;;;;;4972291;28;20396;-72
2023/10/11 07:49:23;;;;;;;128.20;121.22;;;16.80;99.90;;;;;;4975191;28;20044;-71
2023/10/11 07:51:58;;;;;;;121.28;114.72;;;16.80;99.90;;;;;;4960987;28;20042;-71
2023/10/11 07:54:26;;;;;;;126.72;120.18;;;16.80;99.90;;;;;;4965902;28;20034;-68
2023/10/11 07:56:57;;;;;;;129.90;123.03;;;16.90;99.90;;;;;;4958748;28;20043;-68
2023/10/11 07:59:26;;;;;;;128.27;121.57;;;16.90;99.90;;;;;;4961886;28;20057;-67
2023/10/11 08:01:54;;;;;;;127.78;120.63;;;16.80;99.90;;;;;;4970101;28;20038;-68
2023/10/11 08:04:27;;;;;;;131.52;124.53;;;16.90;99.90;;;;;;4962633;28;20066;-69
2023/10/11 08:07:00;;;;;;;123.07;116.53;;;17.00;99.90;;;;;;4963539;28;20030;-68
2023/10/11 08:09:45;;;;;;;127.15;120.43;;;17.00;99.90;;;;;;4978283;28;20484;-69
2023/10/11 08:12:23;;;;;;;128.73;121.85;;;17.00;99.90;;;;;;4961631;28;20058;-68
2023/10/11 08:14:53;;;;;;;132.18;125.05;;;17.10;99.90;;;;;;4957683;28;20056;-68
2023/10/11 08:17:20;;;;;;;129.57;122.90;;;17.00;99.90;;;;;;4971609;28;20043;-68
2023/10/11 08:19:47;;;;;;;126.45;119.97;;;17.10;99.90;;;;;;4974225;28;20035;-68
2023/10/11 08:22:16;;;;;;;126.38;119.80;;;17.10;99.90;;;;;;4962674;28;20033;-68
2023/10/11 08:24:49;;;;;;;119.47;113.32;;;17.10;99.90;;;;;;4966106;28;20459;-68
2023/10/11 08:30:07;;;;;;;132.93;125.95;;;17.10;99.90;;;;;;4973982;28;20412;-68
2023/10/11 08:32:37;;;;;;;121.82;115.35;;;17.10;99.90;;;;;;4965387;28;20404;-68
2023/10/11 08:35:09;;;;;;;124.70;118.15;;;17.10;99.90;;;;;;4958482;28;20361;-68
2023/10/11 08:37:37;;;;;;;131.75;124.90;;;17.10;99.90;;;;;;4962596;28;20059;-69
2023/10/11 08:40:19;;;;;;;139.27;132.05;;;17.10;99.90;;;;;;4973218;28;20027;-68
2023/10/11 08:42:51;;;;;;;128.77;122.00;;;17.10;99.90;;;;;;4959240;28;20047;-68
2023/10/11 08:45:33;;;;;;;134.75;127.80;;;17.20;99.90;;;;;;4955888;28;20043;-68
2023/10/11 08:48:06;;;;;;;135.40;128.10;;;17.20;99.90;;;;;;4967701;28;20043;-68
2023/10/11 08:50:34;;;;;;;142.05;134.52;;;17.30;99.90;;;;;;4957470;28;20029;-71
2023/10/11 08:53:09;;;;;;;147.85;139.98;;;17.40;99.90;;;;;;4968079;28;20065;-70
2023/10/11 08:55:42;;;;;;;134.70;127.63;;;17.40;99.90;;;;;;4972887;28;20063;-70
2023/10/11 08:58:12;;;;;;;137.30;129.98;;;17.30;99.90;;;;;;4971615;28;20038;-68
2023/10/11 09:00:39;;;;;;;133.27;126.10;;;17.30;99.90;;;;;;4973156;28;20038;-72
2023/10/11 09:03:18;;;;;;;146.35;138.63;;;17.40;99.90;;;;;;4965603;28;20069;-72
2023/10/11 09:05:44;;;;;;;134.68;127.65;;;17.40;99.90;;;;;;4965994;28;20396;-72
2023/10/11 09:08:21;;;;;;;136.70;129.40;;;17.40;99.90;;;;;;4972008;28;20035;-72
2023/10/11 09:10:49;;;;;;;141.93;134.55;;;17.30;99.90;;;;;;4972746;28;20046;-66
2023/10/11 09:13:25;;;;;;;143.50;135.88;;;17.40;99.90;;;;;;4965359;28;20043;-72
2023/10/11 09:15:54;;;;;;;146.35;138.82;;;17.40;99.90;;;;;;4962675;28;20039;-72
2023/10/11 09:18:20;;;;;;;150.55;142.88;;;17.50;99.90;;;;;;4971394;28;20069;-72
2023/10/11 09:21:09;;;;;;;159.48;151.10;;;17.60;99.90;;;;;;4968571;28;20027;-72
2023/10/11 09:23:39;;;;;;;146.43;138.48;;;17.50;99.90;;;;;;4956884;28;20070;-72
2023/10/11 09:26:06;;;;;;;151.70;143.70;;;17.40;99.90;;;;;;4968636;28;20042;-72
2023/10/11 09:28:40;;;;;;;151.90;143.65;;;17.60;99.90;;;;;;4954192;29;20031;-72
2023/10/11 09:31:10;;;;;;;152.40;144.23;;;17.60;99.90;;;;;;4965136;28;20042;-73
2023/10/11 09:33:40;;;;;;;158.82;150.20;;;17.70;99.90;;;;;;4963942;28;20047;-72
2023/10/11 09:36:07;;;;;;;156.60;148.38;;;17.70;99.90;;;;;;4971734;28;20039;-72
2023/10/11 09:38:39;;;;;;;154.85;146.45;;;17.80;99.90;;;;;;4964348;28;20383;-72
2023/10/11 09:41:08;;;;;;;160.65;152.23;;;17.90;99.90;;;;;;4968078;28;20046;-72
2023/10/11 09:43:44;;;;;;;161.43;153.00;;;17.90;99.90;;;;;;4963773;28;20043;-72
2023/10/11 09:46:11;;;;;;;163.13;154.65;;;17.90;99.90;;;;;;4976422;28;20039;-72
2023/10/11 09:48:41;;;;;;;168.77;160.02;;;17.90;99.90;;;;;;4975189;28;20400;-72
2023/10/11 09:51:13;;;;;;;177.50;168.10;;;17.90;99.90;;;;;;4976480;28;20054;-72
2023/10/11 09:53:49;;;;;;;174.23;165.27;;;18.00;99.90;;;;;;4961062;28;20046;-73
2023/10/11 09:56:21;;;;;;;178.15;169.00;;;18.10;99.90;;;;;;4976641;28;20046;-72
2023/10/11 09:59:05;;;;;;;171.77;162.68;;;18.10;99.90;;;;;;4977244;28;20022;-72
2023/10/11 10:01:38;;;;;;;173.43;164.35;;;18.10;99.90;;;;;;4965596;28;20043;-72
2023/10/11 10:04:07;;;;;;;179.60;170.18;;;18.20;99.90;;;;;;4970378;28;20047;-70
2023/10/11 10:06:33;;;;;;;184.60;174.70;;;18.20;99.90;;;;;;4971358;28;20055;-70
2023/10/11 10:09:23;;;;;;;201.30;190.50;;;18.20;99.90;;;;;;4972475;28;20046;-71
2023/10/11 10:12:05;;;;;;;154.15;145.90;;;18.30;99.90;;;;;;4966834;28;20043;-70
2023/10/11 10:14:35;;;;;;;160.13;151.32;;;18.50;99.90;;;;;;4959395;28;20054;-71
2023/10/11 10:17:15;;;;;;;147.43;139.37;;;18.60;99.90;;;;;;4971579;28;20388;-71
2023/10/11 10:19:47;;;;;;;124.55;117.68;;;18.70;99.90;;;;;;4975665;28;20042;-70
2023/10/11 10:22:23;;;;;;;118.00;111.47;;;18.70;99.90;;;;;;4959858;28;20035;-70
2023/10/11 10:24:54;;;;;;;94.93;89.55;;;18.70;99.90;;;;;;4957521;28;20050;-70
2023/10/11 10:27:23;;;;;;;97.05;91.75;;;18.70;99.90;;;;;;4956009;28;20030;-70
2023/10/11 10:29:59;;;;;;;96.85;91.28;;;18.70;99.90;;;;;;4972142;28;20476;-70
2023/10/11 10:32:26;;;;;;;107.07;101.22;;;18.60;99.90;;;;;;4966178;28;20074;-71
2023/10/11 10:35:20;;;;;;;89.63;84.45;;;18.70;99.90;;;;;;4975387;28;20042;-70
2023/10/11 10:37:46;;;;;;;136.85;129.57;;;18.90;99.90;;;;;;4975935;28;20050;-70
2023/10/11 10:40:24;;;;;;;87.47;82.63;;;19.00;99.90;;;;;;4962788;28;20392;-71
2023/10/11 10:43:14;;;;;;;69.80;65.38;;;19.10;99.90;;;;;;4955196;29;20380;-71
2023/10/11 10:45:43;;;;;;;154.88;146.35;;;19.20;99.90;;;;;;4955769;28;20481;-70
2023/10/11 10:48:24;;;;;;;113.45;107.18;;;19.30;99.90;;;;;;4960304;28;20047;-70
2023/10/11 10:51:04;;;;;;;63.33;59.83;;;19.50;99.90;;;;;;4974366;28;20026;-70
2023/10/11 10:53:50;;;;;;;127.93;120.55;;;19.50;99.90;;;;;;4975980;28;20388;-70
2023/10/11 10:56:19;;;;;;;110.32;104.43;;;19.60;99.90;;;;;;4966502;28;20046;-70
2023/10/11 10:58:46;;;;;;;105.40;99.80;;;19.70;99.90;;;;;;4975038;28;20027;-70
2023/10/11 11:01:12;;;;;;;75.15;70.82;;;19.70;99.90;;;;;;4974778;28;20023;-70
2023/10/11 11:03:41;;;;;;;119.72;113.13;;;19.90;99.90;;;;;;4975035;28;20058;-70
2023/10/11 11:06:11;;;;;;;155.82;147.50;;;20.00;99.90;;;;;;4968586;28;20383;-70
2023/10/11 11:08:39;;;;;;;180.60;170.68;;;20.10;99.90;;;;;;4987004;28;20027;-70
2023/10/11 11:13:51;;;;;;;128.63;121.95;;;20.20;99.90;;;;;;4975626;28;20041;-71
2023/10/11 11:16:26;;;;;;;120.57;114.25;;;20.30;99.90;;;;;;4965154;28;20058;-71
2023/10/11 11:18:52;;;;;;;109.82;104.00;;;20.30;99.90;;;;;;4962943;28;20629;-70
2023/10/11 11:21:25;;;;;;;89.53;84.72;;;20.40;99.90;;;;;;4964106;28;20038;-71
2023/10/11 11:23:52;;;;;;;104.55;98.70;;;20.50;99.90;;;;;;4955902;29;20372;-71
2023/10/11 11:26:23;;;;;;;133.77;126.55;;;20.60;99.90;;;;;;4957402;28;20050;-71
2023/10/11 11:28:51;;;;;;;;;;;20.60;99.90;;;;;;4974983;28;20034;-71
2023/10/11 11:34:05;;;;;;;104.55;98.85;;;20.80;99.90;;;;;;4976192;28;20046;-70
2023/10/11 11:36:31;;;;;;;113.50;107.22;;;20.90;99.90;;;;;;4974558;28;20031;-70
2023/10/11 11:41:47;;;;;;;131.82;124.60;;;21.00;99.90;;;;;;4965890;28;20035;-71
2023/10/11 11:44:27;;;;;;;123.13;116.25;;;21.10;99.90;;;;;;4968220;28;20058;-71
2023/10/11 11:46:54;;;;;;;120.03;113.55;;;21.20;99.90;;;;;;4972319;28;20046;-71
2023/10/11 11:49:21;;;;;;;124.07;116.70;;;21.20;99.90;;;;;;4972940;28;20031;-71
2023/10/11 11:51:51;;;;;;;157.32;149.00;;;21.30;99.90;;;;;;4974078;28;20027;-71
2023/10/11 11:54:20;;;;;;;218.85;207.13;;;21.50;99.90;;;;;;4972902;28;20372;-71
2023/10/11 11:56:46;;;;;;;201.45;190.68;;;21.60;99.90;;;;;;4973855;28;20038;-71
2023/10/11 11:59:19;;;;;;;236.13;223.27;;;21.60;99.90;;;;;;4974885;28;20034;-71
2023/10/11 12:01:59;;;;;;;224.75;212.98;;;21.70;99.90;;;;;;4960718;28;20043;-70
2023/10/11 12:04:29;;;;;;;215.98;204.57;;;21.80;99.90;;;;;;4955787;28;20039;-71
2023/10/11 12:06:59;;;;;;;255.05;241.68;;;21.90;99.90;;;;;;4974527;28;20031;-71
2023/10/11 12:09:35;;;;;;;230.13;218.20;;;22.10;99.90;;;;;;4974424;28;20050;-70
2023/10/11 12:12:05;;;;;;;231.05;219.25;;;22.20;99.90;;;;;;4973343;28;20047;-71
2023/10/11 12:14:38;;;;;;;294.35;278.42;;;22.30;99.90;;;;;;4973433;28;20396;-70
2023/10/11 12:17:10;;;;;;;239.13;226.40;;;22.30;99.90;;;;;;4969626;28;20050;-71
2023/10/11 12:19:37;;;;;;;242.40;229.95;;;22.40;99.90;;;;;;4972308;28;20031;-71
2023/10/11 12:22:04;;;;;;;258.35;244.95;;;22.50;99.90;;;;;;4972777;28;20042;-71
2023/10/11 12:24:30;;;;;;;275.38;261.55;;;22.60;99.90;;;;;;4973584;28;20031;-70
2023/10/11 12:26:59;;;;;;;351.95;333.15;;;22.70;99.90;;;;;;4972221;28;20031;-71
2023/10/11 12:29:28;;;;;;;316.25;300.33;;;22.80;99.90;;;;;;4969431;28;20467;-71
2023/10/11 12:31:54;;;;;;;293.73;279.00;;;23.00;99.90;;;;;;4967033;28;20058;-70
2023/10/11 12:34:27;;;;;;;290.05;275.27;;;23.10;99.90;;;;;;4965798;28;20039;-71
2023/10/11 12:36:53;;;;;;;307.52;292.10;;;23.30;99.90;;;;;;4961620;28;20038;-71
2023/10/11 12:39:24;;;;;;;364.15;345.08;;;23.50;99.90;;;;;;4955147;28;20047;-71
2023/10/11 12:41:51;;;;;;;335.45;318.05;;;23.60;99.90;;;;;;4972649;28;20035;-71
2023/10/11 12:44:18;;;;;;;353.50;334.45;;;23.60;99.90;;;;;;4971420;28;20030;-71
2023/10/11 12:46:44;;;;;;;373.52;353.35;;;23.70;99.90;;;;;;4956316;28;20049;-71
2023/10/11 12:49:13;;;;;;;365.13;345.92;;;23.80;99.90;;;;;;4971431;28;20460;-71
2023/10/11 12:51:42;;;;;;;380.30;360.08;;;23.90;99.90;;;;;;4960291;28;20046;-71
2023/10/11 12:54:19;;;;;;;384.35;364.25;;;24.00;99.90;;;;;;4954239;28;20043;-72
2023/10/11 12:56:46;;;;;;;414.90;392.52;;;24.10;99.90;;;;;;4963960;28;20111;-70
2023/10/11 12:59:15;;;;;;;561.85;531.10;;;24.00;99.90;;;;;;4967857;28;20033;-70
2023/10/11 13:01:52;;;;;;;578.92;546.20;;;24.00;99.90;;;;;;4952765;28;20427;-72
2023/10/11 13:04:23;;;;;;;560.22;529.35;;;24.00;99.90;;;;;;4953870;28;20035;-70
2023/10/11 13:06:50;;;;;;;596.90;563.13;;;24.00;99.90;;;;;;4954292;28;20131;-69
2023/10/11 13:09:27;;;;;;;622.78;587.05;;;24.10;99.90;;;;;;4963798;28;20027;-70
2023/10/11 13:11:57;;;;;;;654.35;615.25;;;24.10;99.90;;;;;;4970416;28;20038;-70
2023/10/11 13:14:23;;;;;;;660.28;620.67;;;24.30;99.90;;;;;;4967402;28;20030;-70
2023/10/11 13:17:12;;;;;;;665.50;625.30;;;24.30;99.90;;;;;;4962073;28;20042;-70
2023/10/11 13:19:38;;;;;;;683.10;641.38;;;24.40;99.90;;;;;;4965155;28;20030;-70
2023/10/11 13:22:09;;;;;;;1999.90;999.90;;;24.40;99.90;;;;;;4963648;28;20037;-70
2023/10/11 13:24:35;;;;;;;1999.90;999.90;;;24.50;99.90;;;;;;4968684;28;20024;-70
2023/10/11 13:27:03;;;;;;;1999.90;999.90;;;24.50;99.90;;;;;;4962927;28;20436;-70
2023/10/11 13:29:29;;;;;;;1999.90;999.90;;;24.50;99.90;;;;;;4968566;28;20033;-70
2023/10/11 13:31:56;;;;;;;1999.90;999.90;;;24.60;99.90;;;;;;4960008;28;20408;-70
2023/10/11 13:34:30;;;;;;;1999.90;999.90;;;24.60;99.90;;;;;;4960862;28;20096;-70